Time;durP1;ratioP1;P1;durP2;ratioP2;P2;SDS_P1;SDS_P2;PMS_P1;PMS_P2;Temp;Humidity;BMP_temperature;BMP_pressure;BME280_temperature;BME280_humidity;BME280_pressure;Samples;Min_cycle;Max_cycle;Signal;HPM_P1;HPM_P2
2023/03/22 00:02:40;;;;;;;26.00;15.30;;;8.90;99.90;;;;;;10367412;28;20381;-79
2023/03/22 00:08:04;;;;;;;22.43;15.47;;;8.90;99.90;;;;;;10396810;28;20219;-78
2023/03/22 00:13:25;;;;;;;28.17;16.97;;;9.00;99.90;;;;;;10343358;28;20202;-79
2023/03/22 00:18:46;;;;;;;26.13;17.50;;;9.00;99.90;;;;;;10382257;28;20230;-78
2023/03/22 00:24:08;;;;;;;22.47;16.73;;;9.00;99.90;;;;;;10381252;28;20214;-79
2023/03/22 00:29:29;;;;;;;24.13;17.13;;;8.90;99.90;;;;;;10397798;28;20195;-79
2023/03/22 00:34:50;;;;;;;27.30;17.57;;;8.90;99.90;;;;;;10382948;28;20259;-79
2023/03/22 00:40:13;;;;;;;24.47;16.90;;;8.90;99.90;;;;;;10390746;28;20253;-79
2023/03/22 00:45:36;;;;;;;26.17;16.47;;;9.00;99.90;;;;;;10396344;28;20214;-79
2023/03/22 00:50:58;;;;;;;23.13;17.67;;;9.00;99.90;;;;;;10403129;28;20279;-79
2023/03/22 00:56:21;;;;;;;26.30;18.10;;;9.00;99.90;;;;;;10397233;28;20285;-79
2023/03/22 01:01:51;;;;;;;27.47;19.87;;;9.00;99.90;;;;;;10363282;28;20211;-79
2023/03/22 01:07:32;;;;;;;26.17;18.87;;;9.00;99.90;;;;;;10384561;28;20259;-80
2023/03/22 01:12:56;;;;;;;26.07;20.30;;;9.00;99.90;;;;;;10377284;28;20306;-79
2023/03/22 01:18:17;;;;;;;28.47;19.83;;;9.00;99.90;;;;;;10370830;28;20231;-79
2023/03/22 01:23:38;;;;;;;29.80;21.37;;;9.00;99.90;;;;;;10381084;28;20206;-79
2023/03/22 01:29:00;;;;;;;28.23;20.47;;;9.00;99.90;;;;;;10381175;28;20195;-79
2023/03/22 01:34:21;;;;;;;31.37;22.43;;;9.00;99.90;;;;;;10362815;28;20236;-78
2023/03/22 01:39:43;;;;;;;34.10;22.83;;;9.00;99.90;;;;;;10377676;28;20226;-78
2023/03/22 01:45:13;;;;;;;31.30;23.00;;;8.90;99.90;;;;;;10362985;28;20212;-78
2023/03/22 01:50:37;;;;;;;30.33;21.60;;;8.90;99.90;;;;;;10399122;28;20197;-79
2023/03/22 01:56:00;;;;;;;38.43;23.83;;;8.80;99.90;;;;;;10379289;28;20191;-78
2023/03/22 02:01:24;;;;;;;34.03;24.77;;;8.80;99.90;;;;;;10327082;28;20200;-78
2023/03/22 02:06:50;;;;;;;32.20;23.40;;;8.80;99.90;;;;;;10352993;28;20266;-80
2023/03/22 02:12:58;;;;;;;31.60;23.07;;;8.80;99.90;;;;;;10364522;28;20231;-79
2023/03/22 02:18:53;;;;;;;36.23;23.87;;;8.80;99.90;;;;;;10357268;28;20234;-78
2023/03/22 02:24:50;;;;;;;37.83;25.53;;;8.80;99.90;;;;;;10373437;28;20207;-78
2023/03/22 02:30:46;;;;;;;35.77;23.47;;;8.80;99.90;;;;;;10251632;29;20216;-79
2023/03/22 02:37:02;;;;;;;37.07;25.43;;;8.70;99.90;;;;;;10243851;29;20509;-79
2023/03/22 02:42:41;;;;;;;35.70;25.73;;;8.80;99.90;;;;;;10194304;29;20224;-79
2023/03/22 02:48:08;;;;;;;38.03;25.90;;;8.70;99.90;;;;;;10202659;29;20220;-80
2023/03/22 02:53:36;;;;;;;40.50;26.60;;;8.60;99.90;;;;;;10212841;29;20784;-79
2023/03/22 02:59:01;;;;;;;39.53;25.87;;;8.60;99.90;;;;;;10175011;29;20231;-79
2023/03/22 03:04:36;;;;;;;38.37;28.20;;;8.60;99.90;;;;;;10243527;29;20213;-79
2023/03/22 03:09:58;;;;;;;45.07;31.63;;;8.60;99.90;;;;;;10235887;28;20216;-79
2023/03/22 03:15:22;;;;;;;41.80;30.13;;;8.50;99.90;;;;;;10332272;28;20259;-79
2023/03/22 03:21:03;;;;;;;48.00;32.83;;;8.40;99.90;;;;;;10391883;28;20307;-79
2023/03/22 03:26:48;;;;;;;48.07;34.33;;;8.40;99.90;;;;;;10341641;28;20257;-80
2023/03/22 03:32:34;;;;;;;59.33;38.87;;;8.40;99.90;;;;;;10360622;28;20237;-78
2023/03/22 03:38:08;;;;;;;57.47;36.57;;;8.40;99.90;;;;;;10336897;28;20223;-79
2023/03/22 03:43:31;;;;;;;50.80;35.93;;;8.20;99.90;;;;;;10366680;28;20202;-78
2023/03/22 03:48:55;;;;;;;50.90;35.50;;;8.20;99.90;;;;;;10370693;28;20222;-80
2023/03/22 03:54:16;;;;;;;53.60;35.43;;;8.30;99.90;;;;;;10406538;28;20231;-80
2023/03/22 03:59:37;;;;;;;55.57;36.30;;;8.20;99.90;;;;;;10370421;28;20246;-79
2023/03/22 04:05:08;;;;;;;53.53;35.37;;;8.20;99.90;;;;;;10382172;28;20226;-79
2023/03/22 04:10:30;;;;;;;59.27;39.70;;;8.30;99.90;;;;;;10363349;28;20218;-80
2023/03/22 04:15:53;;;;;;;51.97;33.37;;;8.20;99.90;;;;;;10358739;28;20194;-80
2023/03/22 04:21:15;;;;;;;54.57;35.20;;;8.20;99.90;;;;;;10382106;28;20253;-80
2023/03/22 04:26:51;;;;;;;47.73;32.57;;;8.20;99.90;;;;;;10354258;28;20205;-80
2023/03/22 04:32:32;;;;;;;51.63;35.63;;;8.20;99.90;;;;;;10362208;28;20316;-79
2023/03/22 04:37:54;;;;;;;45.50;32.37;;;8.20;99.90;;;;;;10345736;28;20227;-79
2023/03/22 04:43:17;;;;;;;44.83;30.77;;;8.20;99.90;;;;;;10366649;28;20203;-79
2023/03/22 04:48:52;;;;;;;51.33;35.03;;;8.20;99.90;;;;;;10337215;28;20194;-80
2023/03/22 04:54:14;;;;;;;56.63;34.33;;;8.20;99.90;;;;;;10422070;28;20220;-80
2023/03/22 04:59:37;;;;;;;45.77;29.53;;;8.10;99.90;;;;;;10333875;28;20403;-80
2023/03/22 05:04:58;;;;;;;45.93;30.57;;;8.20;99.90;;;;;;10338191;28;20242;-80
2023/03/22 05:10:32;;;;;;;43.40;30.20;;;8.10;99.90;;;;;;10359527;28;20195;-79
2023/03/22 05:15:54;;;;;;;46.37;30.77;;;8.20;99.90;;;;;;10363768;28;20215;-80
2023/03/22 05:21:26;;;;;;;45.30;31.07;;;8.20;99.90;;;;;;10363506;28;20252;-79
2023/03/22 05:26:52;;;;;;;47.10;32.73;;;8.20;99.90;;;;;;10315664;28;20585;-79
2023/03/22 05:32:17;;;;;;;48.60;32.90;;;8.20;99.90;;;;;;10380009;28;20233;-80
2023/03/22 05:37:40;;;;;;;52.67;35.30;;;8.20;99.90;;;;;;10359561;28;20230;-79
2023/03/22 05:43:02;;;;;;;46.40;31.53;;;8.20;99.90;;;;;;10380662;28;20218;-79
2023/03/22 05:48:24;;;;;;;49.87;32.60;;;8.30;99.90;;;;;;10354085;28;20230;-79
2023/03/22 05:53:47;;;;;;;50.37;33.00;;;8.30;99.90;;;;;;10341458;28;20222;-80
2023/03/22 05:59:11;;;;;;;49.97;32.07;;;8.30;99.90;;;;;;10338973;28;20231;-79
2023/03/22 06:04:33;;;;;;;46.93;32.67;;;8.20;99.90;;;;;;10341284;28;20208;-79
2023/03/22 06:10:07;;;;;;;47.03;33.03;;;8.30;99.90;;;;;;10394398;28;20197;-80
2023/03/22 06:15:29;;;;;;;47.40;31.57;;;8.30;99.90;;;;;;10362929;28;20274;-80
2023/03/22 06:21:01;;;;;;;52.80;34.37;;;8.40;99.90;;;;;;10357797;28;20282;-79
2023/03/22 06:26:22;;;;;;;49.57;33.10;;;8.40;99.90;;;;;;10386010;28;20362;-79
2023/03/22 06:31:44;;;;;;;57.30;37.30;;;8.50;99.90;;;;;;10360952;28;20236;-79
2023/03/22 06:37:06;;;;;;;71.00;45.73;;;8.50;99.90;;;;;;10342181;28;20306;-80
2023/03/22 06:42:33;;;;;;;54.80;35.27;;;8.50;99.90;;;;;;10345338;28;20518;-79
2023/03/22 06:48:03;;;;;;;47.57;31.03;;;8.50;99.90;;;;;;10344611;28;20424;-79
2023/03/22 06:53:47;;;;;;;46.00;28.73;;;8.60;99.90;;;;;;10412409;28;20203;-78
2023/03/22 06:59:09;;;;;;;42.77;27.83;;;8.80;99.90;;;;;;10393044;28;20402;-78
2023/03/22 07:04:31;;;;;;;41.00;26.73;;;8.90;99.90;;;;;;10358383;28;20200;-78
2023/03/22 07:09:53;;;;;;;38.13;25.90;;;9.00;99.90;;;;;;10381787;28;20279;-78
2023/03/22 07:15:16;;;;;;;38.20;25.03;;;9.00;99.90;;;;;;10403439;28;20199;-77
2023/03/22 07:21:14;;;;;;;43.13;27.77;;;9.20;99.90;;;;;;10290390;28;20247;-77
2023/03/22 07:26:40;;;;;;;37.57;24.93;;;9.20;99.90;;;;;;10288220;28;20302;-77
2023/03/22 07:32:05;;;;;;;40.13;26.07;;;9.40;99.90;;;;;;10306670;28;20246;-79
2023/03/22 07:37:51;;;;;;;34.10;22.73;;;9.60;99.90;;;;;;10294461;28;20247;-78
2023/03/22 07:43:19;;;;;;;30.53;21.47;;;9.90;99.90;;;;;;10299889;28;20210;-79
2023/03/22 07:48:48;;;;;;;32.30;22.13;;;10.00;99.90;;;;;;10309585;28;20292;-78
2023/03/22 07:54:45;;;;;;;34.37;23.40;;;10.10;99.90;;;;;;10332859;28;20290;-79
2023/03/22 08:00:09;;;;;;;30.73;22.40;;;10.10;99.90;;;;;;10368836;28;20408;-79
2023/03/22 08:05:41;;;;;;;37.03;24.20;;;10.10;99.90;;;;;;10423539;28;20460;-79
2023/03/22 08:11:06;;;;;;;33.03;24.47;;;10.00;99.90;;;;;;11327886;22;20271;-79
2023/03/22 08:16:27;;;;;;;32.80;22.43;;;9.90;99.90;;;;;;10386270;28;20208;-77
2023/03/22 08:21:50;;;;;;;34.37;23.17;;;9.80;99.90;;;;;;10359556;28;20241;-77
2023/03/22 08:27:29;;;;;;;33.63;22.30;;;9.80;99.90;;;;;;10355898;28;20227;-77
2023/03/22 08:32:52;;;;;;;27.90;20.50;;;9.90;99.90;;;;;;10355812;28;20203;-79
2023/03/22 08:38:13;;;;;;;30.57;19.33;;;10.00;99.90;;;;;;10360358;28;20225;-79
2023/03/22 08:43:40;;;;;;;28.23;19.53;;;10.20;99.90;;;;;;10358597;28;20220;-80
2023/03/22 08:49:02;;;;;;;30.63;18.97;;;10.40;99.90;;;;;;10375936;28;20221;-79
2023/03/22 08:54:34;;;;;;;30.43;18.77;;;10.50;99.90;;;;;;10374887;28;20211;-78
2023/03/22 08:59:56;;;;;;;26.60;19.00;;;10.40;99.90;;;;;;10389483;28;20391;-78
2023/03/22 09:05:38;;;;;;;26.20;17.70;;;10.40;99.90;;;;;;10354641;28;20203;-77
2023/03/22 09:11:01;;;;;;;30.07;18.93;;;10.40;99.90;;;;;;10332753;28;20316;-78
2023/03/22 09:16:23;;;;;;;30.57;19.40;;;10.40;99.90;;;;;;10353779;28;20221;-79
2023/03/22 09:21:46;;;;;;;28.13;18.60;;;10.50;99.90;;;;;;10389344;28;20559;-81
2023/03/22 09:27:12;;;;;;;23.83;16.10;;;10.50;99.90;;;;;;10353687;28;20284;-78
2023/03/22 09:32:33;;;;;;;25.33;16.37;;;10.60;99.90;;;;;;10386617;28;20388;-75
2023/03/22 09:37:58;;;;;;;23.20;16.23;;;10.80;99.90;;;;;;10343900;28;20230;-78
2023/03/22 09:43:20;;;;;;;21.60;15.47;;;10.90;99.90;;;;;;10348979;28;20196;-77
2023/03/22 09:48:43;;;;;;;29.50;17.60;;;11.30;99.90;;;;;;10361742;28;20238;-77
2023/03/22 09:54:20;;;;;;;20.43;15.70;;;11.50;99.90;;;;;;10375960;28;20218;-78
2023/03/22 10:00:13;;;;;;;21.43;15.37;;;11.60;99.90;;;;;;10398588;28;20820;-78
2023/03/22 10:05:52;;;;;;;21.90;15.63;;;11.70;99.90;;;;;;10397377;28;20224;-79
2023/03/22 10:11:31;;;;;;;19.43;13.47;;;11.70;99.90;;;;;;10386070;28;20237;-78
2023/03/22 10:16:55;;;;;;;21.63;15.23;;;11.50;99.90;;;;;;10394728;28;20265;-78
2023/03/22 10:22:23;;;;;;;22.20;12.93;;;11.50;99.90;;;;;;10387720;28;20262;-79
2023/03/22 10:27:54;;;;;;;42.55;26.65;;;13.00;99.90;;;;;;10419914;28;20207;-78
2023/03/22 10:33:37;;;;;;;19.17;12.68;;;14.20;99.90;;;;;;10411700;28;20244;-79
2023/03/22 10:39:04;;;;;;;17.33;12.77;;;14.70;99.90;;;;;;10355971;28;20217;-80
2023/03/22 10:44:28;;;;;;;20.88;13.80;;;15.30;99.90;;;;;;10338892;28;20390;-78
2023/03/22 10:49:53;;;;;;;15.90;12.48;;;15.70;97.90;;;;;;10366292;28;20304;-79
2023/03/22 10:55:16;;;;;;;15.73;11.65;;;15.40;98.20;;;;;;10396034;28;20254;-79
2023/03/22 11:00:37;;;;;;;19.77;13.82;;;14.60;99.90;;;;;;10396359;28;20303;-79
2023/03/22 11:06:06;;;;;;;24.00;16.50;;;13.80;99.90;;;;;;10388427;28;20212;-79
2023/03/22 11:11:31;;;;;;;21.30;13.83;;;13.20;99.90;;;;;;10394135;28;20372;-78
2023/03/22 11:16:56;;;;;;;17.00;12.07;;;13.00;99.90;;;;;;10358781;28;20208;-78
2023/03/22 11:22:35;;;;;;;33.47;22.33;;;12.70;99.90;;;;;;10357285;28;20563;-78
2023/03/22 11:28:08;;;;;;;19.03;13.50;;;12.80;99.90;;;;;;10354413;28;20197;-80
2023/03/22 11:33:29;;;;;;;19.98;13.38;;;12.90;99.90;;;;;;10338692;28;20247;-80
2023/03/22 11:39:06;;;;;;;30.73;19.03;;;13.10;99.90;;;;;;10339937;28;20224;-81
2023/03/22 11:44:34;;;;;;;18.30;12.65;;;13.30;99.90;;;;;;10364941;28;20213;-78
2023/03/22 11:49:56;;;;;;;23.15;15.13;;;14.00;99.90;;;;;;10353377;28;20232;-77
2023/03/22 11:55:19;;;;;;;18.80;12.97;;;14.20;99.90;;;;;;10360461;28;20196;-80
2023/03/22 12:00:41;;;;;;;18.08;12.90;;;14.10;99.90;;;;;;10363046;28;20232;-78
2023/03/22 12:06:11;;;;;;;19.58;13.68;;;13.90;99.90;;;;;;10370442;28;20591;-78
2023/03/22 12:11:40;;;;;;;25.25;15.60;;;13.70;99.90;;;;;;10357361;28;20248;-78
2023/03/22 12:17:17;;;;;;;21.27;14.53;;;13.50;99.90;;;;;;10374399;28;20221;-77
2023/03/22 12:22:42;;;;;;;19.85;13.50;;;13.40;99.90;;;;;;10398883;28;20195;-78
2023/03/22 12:28:12;;;;;;;20.95;16.15;;;13.40;99.90;;;;;;10373719;28;20217;-79
2023/03/22 12:33:45;;;;;;;21.50;13.33;;;13.30;99.90;;;;;;10377317;28;20555;-78
2023/03/22 12:39:12;;;;;;;24.27;13.83;;;13.20;99.90;;;;;;10373998;28;20296;-79
2023/03/22 12:44:38;;;;;;;23.93;14.03;;;13.10;99.90;;;;;;10371029;28;20201;-78
2023/03/22 12:50:22;;;;;;;23.47;13.83;;;13.20;99.90;;;;;;10372945;28;20210;-78
2023/03/22 12:55:45;;;;;;;20.87;13.70;;;13.00;99.90;;;;;;10374169;28;20209;-78
2023/03/22 13:01:42;;;;;;;23.87;14.20;;;13.10;99.90;;;;;;10353076;28;20548;-79
2023/03/22 13:07:29;;;;;;;19.70;14.07;;;13.10;99.90;;;;;;10370049;28;20230;-78
2023/03/22 13:13:20;;;;;;;25.57;14.83;;;13.10;99.90;;;;;;10396806;28;20252;-78
2023/03/22 13:18:41;;;;;;;21.07;14.87;;;13.20;99.90;;;;;;10350422;28;20603;-78
2023/03/22 13:24:08;;;;;;;21.17;14.57;;;13.20;99.90;;;;;;10384823;28;20210;-79
2023/03/22 13:56:59;;;;;;;23.03;15.57;;;13.20;99.90;;;;;;10540700;28;20617;-78
2023/03/22 14:02:34;;;;;;;25.77;16.20;;;13.20;99.90;;;;;;10548739;28;20193;-78
2023/03/22 14:07:59;;;;;;;25.30;16.10;;;13.10;99.90;;;;;;10477934;28;20203;-78
2023/03/22 14:13:22;;;;;;;30.43;17.23;;;13.00;99.90;;;;;;10529377;28;20558;-78
2023/03/22 14:18:46;;;;;;;42.50;22.73;;;12.90;99.90;;;;;;10507859;28;20205;-78
2023/03/22 14:24:11;;;;;;;30.67;20.57;;;12.80;99.90;;;;;;10501528;28;20217;-78
2023/03/22 14:29:45;;;;;;;19.50;14.10;;;12.80;99.90;;;;;;10506913;28;20480;-77
2023/03/22 14:35:19;;;;;;;18.37;14.03;;;12.70;99.90;;;;;;10505931;28;20218;-78
2023/03/22 14:40:39;;;;;;;24.63;15.23;;;12.70;99.90;;;;;;10484362;28;20259;-78
2023/03/22 14:46:09;;;;;;;24.60;14.20;;;12.70;99.90;;;;;;10490670;28;20250;-79
2023/03/22 14:51:35;;;;;;;15.93;12.80;;;12.70;99.90;;;;;;10519189;28;20219;-82
2023/03/22 14:56:59;;;;;;;21.57;14.90;;;12.70;99.90;;;;;;10499571;28;20490;-80
2023/03/22 15:02:36;;;;;;;20.67;14.23;;;12.70;99.90;;;;;;10481284;28;20207;-78
2023/03/22 15:08:18;;;;;;;19.43;14.90;;;12.70;99.90;;;;;;10494926;28;20238;-78
2023/03/22 15:13:39;;;;;;;30.77;20.50;;;12.60;99.90;;;;;;10505976;28;20233;-79
2023/03/22 15:19:02;;;;;;;28.20;18.37;;;12.60;99.90;;;;;;10452540;28;20253;-78
2023/03/22 15:24:33;;;;;;;23.80;16.50;;;12.60;99.90;;;;;;10483551;28;20205;-78
2023/03/22 15:29:54;;;;;;;41.00;26.20;;;12.60;99.90;;;;;;10455000;28;20253;-80
2023/03/22 15:35:16;;;;;;;29.00;19.83;;;12.50;99.90;;;;;;10457053;28;20228;-77
2023/03/22 15:40:39;;;;;;;58.73;33.07;;;12.50;99.90;;;;;;10492068;28;20186;-78
2023/03/22 15:46:17;;;;;;;38.03;25.07;;;12.40;99.90;;;;;;10469006;28;20218;-77
2023/03/22 15:51:39;;;;;;;29.33;22.40;;;12.40;99.90;;;;;;10446223;28;20222;-82
2023/03/22 15:57:16;;;;;;;26.50;19.93;;;12.30;99.90;;;;;;10475213;28;20536;-80
2023/03/22 16:02:49;;;;;;;25.43;18.67;;;12.20;99.90;;;;;;10461739;28;20233;-78
2023/03/22 16:08:13;;;;;;;28.92;20.02;;;12.20;99.90;;;;;;10491305;28;20433;-78
2023/03/22 16:13:34;;;;;;;33.43;21.57;;;12.20;99.90;;;;;;10494775;28;20223;-78
2023/03/22 16:18:54;;;;;;;37.60;27.70;;;12.10;99.90;;;;;;10429266;28;20202;-78
2023/03/22 16:24:14;;;;;;;41.37;27.73;;;12.10;99.90;;;;;;10455380;28;20485;-78
2023/03/22 16:29:33;;;;;;;30.37;21.97;;;12.10;99.90;;;;;;10475767;28;20345;-79
2023/03/22 16:34:54;;;;;;;43.47;25.87;;;12.00;99.90;;;;;;10447900;28;20252;-78
2023/03/22 16:40:19;;;;;;;32.73;21.20;;;11.90;99.90;;;;;;10435596;28;20182;-79
2023/03/22 16:45:39;;;;;;;37.47;23.57;;;11.90;99.90;;;;;;10427122;28;20209;-78
2023/03/22 16:50:59;;;;;;;51.70;31.07;;;11.80;99.90;;;;;;10450230;28;20198;-78
2023/03/22 16:56:23;;;;;;;29.63;21.93;;;11.80;99.90;;;;;;10459840;28;20312;-79
2023/03/22 17:01:43;;;;;;;38.30;25.47;;;11.70;99.90;;;;;;10464669;28;20288;-79
2023/03/22 17:07:12;;;;;;;55.70;32.73;;;11.70;99.90;;;;;;10519221;28;20189;-78
2023/03/22 17:12:37;;;;;;;45.33;28.00;;;11.70;99.90;;;;;;10517322;28;20234;-78
2023/03/22 17:17:58;;;;;;;31.23;22.33;;;11.60;99.90;;;;;;10448360;28;20203;-78
2023/03/22 17:23:19;;;;;;;35.87;24.03;;;11.60;99.90;;;;;;10447000;28;20201;-79
2023/03/22 17:28:39;;;;;;;45.03;27.20;;;11.50;99.90;;;;;;10435131;28;20198;-78
2023/03/22 17:34:00;;;;;;;39.77;24.50;;;11.50;99.90;;;;;;10435427;28;20218;-79
2023/03/22 17:39:20;;;;;;;52.37;31.07;;;11.50;99.90;;;;;;10423861;28;20215;-79
2023/03/22 17:44:41;;;;;;;45.30;28.43;;;11.40;99.90;;;;;;10435562;28;20270;-79
2023/03/22 17:50:02;;;;;;;49.53;30.47;;;11.40;99.90;;;;;;10438781;28;20198;-79
2023/03/22 17:55:25;;;;;;;59.23;36.90;;;11.40;99.90;;;;;;10450508;28;20229;-79
2023/03/22 18:00:45;;;;;;;56.17;34.80;;;11.40;99.90;;;;;;10478166;28;20197;-79
2023/03/22 18:06:05;;;;;;;44.77;29.43;;;11.30;99.90;;;;;;10517388;28;20233;-79
2023/03/22 18:11:26;;;;;;;41.00;28.30;;;11.30;99.90;;;;;;10503530;28;20190;-78
2023/03/22 18:16:45;;;;;;;45.77;27.97;;;11.30;99.90;;;;;;10450584;28;20330;-79
2023/03/22 18:22:06;;;;;;;38.03;24.93;;;11.30;99.90;;;;;;10431138;28;20611;-78
2023/03/22 18:27:28;;;;;;;49.57;31.77;;;11.30;99.90;;;;;;10461721;28;20191;-78
2023/03/22 18:32:50;;;;;;;42.73;26.03;;;11.20;99.90;;;;;;10469432;28;20407;-78
2023/03/22 18:38:11;;;;;;;39.10;23.63;;;11.20;99.90;;;;;;10461411;28;20281;-79
2023/03/22 18:43:36;;;;;;;39.83;26.60;;;11.10;99.90;;;;;;10468620;28;20212;-78
2023/03/22 18:48:56;;;;;;;44.87;30.70;;;11.10;99.90;;;;;;10455060;28;20195;-78
2023/03/22 18:54:16;;;;;;;34.03;25.07;;;11.20;99.90;;;;;;10453627;28;20265;-78
2023/03/22 18:59:36;;;;;;;41.10;28.23;;;11.10;99.90;;;;;;10482741;28;20828;-79
2023/03/22 19:04:55;;;;;;;50.17;31.20;;;11.10;99.90;;;;;;10480145;28;20260;-78
2023/03/22 19:10:15;;;;;;;33.63;23.67;;;11.00;99.90;;;;;;10429794;28;20367;-78
2023/03/22 19:15:35;;;;;;;44.60;26.57;;;11.00;99.90;;;;;;10453033;28;20221;-79
2023/03/22 19:20:55;;;;;;;41.63;28.13;;;11.00;99.90;;;;;;10467870;28;20209;-78
2023/03/22 19:26:15;;;;;;;48.77;31.00;;;11.00;99.90;;;;;;10477701;28;20240;-79
2023/03/22 19:31:36;;;;;;;94.27;54.37;;;11.00;99.90;;;;;;10467411;28;20464;-79
2023/03/22 19:36:57;;;;;;;60.20;37.13;;;11.00;99.90;;;;;;10467181;28;20283;-78
2023/03/22 19:42:17;;;;;;;40.13;26.60;;;11.00;99.90;;;;;;10461754;28;20216;-79
2023/03/22 19:47:37;;;;;;;37.27;23.47;;;11.00;99.90;;;;;;10466954;28;20429;-79
2023/03/22 19:52:57;;;;;;;36.20;24.37;;;11.00;99.90;;;;;;10466349;28;20235;-79
2023/03/22 19:58:17;;;;;;;35.80;24.17;;;11.00;99.90;;;;;;10457509;28;20208;-79
2023/03/22 20:03:38;;;;;;;38.70;26.00;;;11.00;99.90;;;;;;10473336;28;20208;-79
2023/03/22 20:09:01;;;;;;;37.47;23.87;;;11.00;99.90;;;;;;10459778;28;20206;-79
2023/03/22 20:14:20;;;;;;;40.80;27.13;;;11.00;99.90;;;;;;10490890;28;20260;-79
2023/03/22 20:19:41;;;;;;;42.87;29.00;;;11.00;99.90;;;;;;10469687;28;20202;-79
2023/03/22 20:25:01;;;;;;;37.77;26.13;;;11.00;99.90;;;;;;10451428;28;20191;-78
2023/03/22 20:30:21;;;;;;;36.57;23.03;;;11.00;99.90;;;;;;10464041;28;20264;-78
2023/03/22 20:35:41;;;;;;;36.40;25.30;;;11.00;99.90;;;;;;10475533;28;20222;-79
2023/03/22 20:41:01;;;;;;;39.17;27.53;;;11.00;99.90;;;;;;10464859;28;20188;-79
2023/03/22 20:46:22;;;;;;;42.77;28.13;;;10.90;99.90;;;;;;10473146;28;20273;-78
2023/03/22 20:51:41;;;;;;;34.40;24.03;;;10.90;99.90;;;;;;10437224;28;20293;-78
2023/03/22 20:57:01;;;;;;;33.10;21.70;;;11.00;99.90;;;;;;10460856;28;20600;-79
2023/03/22 21:02:21;;;;;;;34.33;22.30;;;11.00;99.90;;;;;;10464918;28;20200;-79
2023/03/22 21:07:42;;;;;;;30.53;20.77;;;11.00;99.90;;;;;;10501889;28;20191;-78
2023/03/22 21:13:03;;;;;;;24.50;17.63;;;10.90;99.90;;;;;;10463057;28;20404;-79
2023/03/22 21:18:23;;;;;;;22.57;17.23;;;11.00;99.90;;;;;;10471106;28;20229;-79
2023/03/22 21:23:43;;;;;;;26.73;17.30;;;11.00;99.90;;;;;;10464393;28;20266;-79
2023/03/22 21:29:03;;;;;;;21.53;14.90;;;11.00;99.90;;;;;;10421296;28;20202;-78
2023/03/22 21:34:23;;;;;;;26.40;16.83;;;11.00;99.90;;;;;;10438914;28;20252;-79
2023/03/22 21:39:43;;;;;;;29.57;19.40;;;11.00;99.90;;;;;;10424127;28;20571;-78
2023/03/22 21:45:04;;;;;;;25.40;17.20;;;11.00;99.90;;;;;;10438816;28;20210;-79
2023/03/22 21:50:24;;;;;;;25.83;15.57;;;11.00;99.90;;;;;;10423697;28;20205;-79
2023/03/22 21:55:45;;;;;;;22.10;14.20;;;11.10;99.90;;;;;;10456510;28;20308;-78
2023/03/22 22:01:06;;;;;;;21.83;15.87;;;11.10;99.90;;;;;;10448602;28;20182;-79
2023/03/22 22:06:25;;;;;;;26.27;15.70;;;11.10;99.90;;;;;;10444654;28;20212;-79
2023/03/22 22:11:45;;;;;;;25.07;15.70;;;11.10;99.90;;;;;;10420662;28;20249;-79
2023/03/22 22:17:06;;;;;;;22.37;14.27;;;11.10;99.90;;;;;;10456727;28;20225;-78
2023/03/22 22:22:25;;;;;;;18.40;14.10;;;11.10;99.90;;;;;;10474421;28;20203;-78
2023/03/22 22:27:46;;;;;;;23.30;15.67;;;11.10;99.90;;;;;;10470691;28;20250;-79
2023/03/22 22:33:06;;;;;;;30.53;19.67;;;11.10;99.90;;;;;;10428802;28;20442;-79
2023/03/22 22:38:26;;;;;;;32.20;21.20;;;11.10;99.90;;;;;;10428506;28;20528;-79
2023/03/22 22:43:46;;;;;;;31.50;20.13;;;11.10;99.90;;;;;;10482757;28;20198;-79
2023/03/22 22:49:06;;;;;;;38.57;23.13;;;11.00;99.90;;;;;;10483281;28;20529;-79
2023/03/22 22:54:26;;;;;;;32.20;21.87;;;11.00;99.90;;;;;;10462646;28;20249;-79
2023/03/22 22:59:46;;;;;;;34.47;21.00;;;10.90;99.90;;;;;;10450322;28;20190;-79
2023/03/22 23:05:10;;;;;;;29.47;20.23;;;10.90;99.90;;;;;;10457056;28;20201;-79
2023/03/22 23:10:34;;;;;;;32.07;20.93;;;10.90;99.90;;;;;;10459938;28;20268;-79
2023/03/22 23:15:54;;;;;;;29.93;19.27;;;10.90;99.90;;;;;;10466078;28;20229;-79
2023/03/22 23:21:17;;;;;;;24.27;16.67;;;10.90;99.90;;;;;;10482088;28;20388;-79
2023/03/22 23:26:41;;;;;;;18.70;13.37;;;10.80;99.90;;;;;;10469698;28;20218;-79
2023/03/22 23:32:00;;;;;;;24.13;13.40;;;10.80;99.90;;;;;;10468234;28;20423;-79
2023/03/22 23:37:31;;;;;;;22.37;12.47;;;10.70;99.90;;;;;;10412988;28;20205;-79
2023/03/22 23:42:51;;;;;;;21.13;13.07;;;10.70;99.90;;;;;;10429247;28;20307;-79
2023/03/22 23:48:11;;;;;;;21.33;12.40;;;10.70;99.90;;;;;;10425452;28;20206;-78
2023/03/22 23:53:32;;;;;;;15.50;11.43;;;10.70;99.90;;;;;;10425256;28;20255;-79
2023/03/22 23:58:52;;;;;;;15.53;10.97;;;10.70;99.90;;;;;;10425337;28;20203;-79
